Time;durP1;ratioP1;P1;durP2;ratioP2;P2;SDS_P1;SDS_P2;PMS_P1;PMS_P2;Temp;Humidity;BMP_temperature;BMP_pressure;BME280_temperature;BME280_humidity;BME280_pressure;Samples;Min_cycle;Max_cycle;Signal;HPM_P1;HPM_P2
2023/08/22 00:06:44;;;;;;;92.60;47.80;;;;;;;19.99;79.32;100859.23;670649;1264;140582;-78
2023/08/22 00:21:47;;;;;;;60.00;32.60;;;;;;;19.87;80.63;100858.56;671712;1273;140622;-79
2023/08/22 00:36:51;;;;;;;30.80;18.00;;;;;;;19.66;80.64;100859.73;669035;1264;140213;-79
2023/08/22 00:51:58;;;;;;;23.10;11.40;;;;;;;19.50;80.46;100864.57;670890;1276;140256;-79
2023/08/22 01:07:26;;;;;;;18.60;10.50;;;;;;;19.19;80.47;100870.02;669204;1261;140100;-79
2023/08/22 01:22:29;;;;;;;14.80;6.90;;;;;;;18.92;81.23;100866.19;669166;1261;140083;-79
2023/08/22 01:37:35;;;;;;;12.50;5.10;;;;;;;18.71;81.56;100862.09;668497;1264;140737;-78
2023/08/22 01:52:40;;;;;;;11.00;4.00;;;;;;;18.56;83.02;100868.91;668753;1266;140518;-79
2023/08/22 02:07:43;;;;;;;11.10;4.80;;;;;;;18.48;83.73;100868.71;668789;1267;139996;-79
2023/08/22 02:22:46;;;;;;;15.70;5.00;;;;;;;18.36;83.96;100868.86;668763;1265;140741;-78
2023/08/22 02:37:51;;;;;;;9.70;4.20;;;;;;;18.24;84.79;100869.10;668171;1265;140597;-79
2023/08/22 02:52:54;;;;;;;6.40;3.80;;;;;;;18.15;84.17;100865.13;668397;1277;140231;-80
2023/08/22 03:07:57;;;;;;;12.40;5.40;;;;;;;17.86;84.26;100856.02;668773;1265;139533;-78
2023/08/22 03:23:01;;;;;;;7.50;4.20;;;;;;;17.59;86.00;100859.41;670430;1265;139275;-80
2023/08/22 03:38:04;;;;;;;12.20;5.70;;;;;;;17.44;87.78;100849.66;672717;1264;140314;-80
2023/08/22 03:53:09;;;;;;;14.80;5.50;;;;;;;17.43;87.74;100843.60;672849;1265;140203;-81
2023/08/22 04:08:13;;;;;;;11.50;5.00;;;;;;;17.65;87.16;100847.98;672779;1262;140674;-81
2023/08/22 04:23:17;;;;;;;15.40;8.80;;;;;;;17.72;87.62;100843.66;672349;1268;140609;-80
2023/08/22 04:38:20;;;;;;;12.40;7.70;;;;;;;17.97;86.75;100825.89;673229;1263;139937;-80
2023/08/22 04:53:24;;;;;;;13.40;7.40;;;;;;;18.17;88.22;100837.86;672523;1267;140095;-80
2023/08/22 05:08:28;;;;;;;11.60;4.90;;;;;;;18.52;89.74;100848.91;672526;1261;140087;-80
2023/08/22 05:23:32;;;;;;;9.70;5.10;;;;;;;19.13;91.39;100866.23;672491;1266;140548;-79
2023/08/22 05:38:35;;;;;;;10.30;4.00;;;;;;;22.96;83.63;100862.15;669802;1274;139752;-79
2023/08/22 05:53:39;;;;;;;9.60;3.50;;;;;;;25.86;74.23;100883.02;669117;1273;139818;-78
2023/08/22 06:08:43;;;;;;;10.80;3.70;;;;;;;27.67;68.74;100899.99;669185;1274;139449;-78
2023/08/22 06:23:46;;;;;;;10.10;3.10;;;;;;;28.61;66.14;100895.95;669266;1264;141882;-78
2023/08/22 06:38:52;;;;;;;6.20;2.50;;;;;;;30.03;63.31;100891.34;669883;1265;139284;-78
2023/08/22 06:53:55;;;;;;;5.70;2.50;;;;;;;30.85;59.85;100895.70;668718;1266;139425;-78
2023/08/22 07:08:59;;;;;;;5.30;2.20;;;;;;;30.85;58.15;100864.50;667548;1266;140172;-79
2023/08/22 07:24:03;;;;;;;5.00;1.40;;;;;;;32.21;55.58;100862.25;668955;1264;140111;-77
2023/08/22 07:39:06;;;;;;;4.50;1.50;;;;;;;33.82;51.23;100868.33;669038;1273;140578;-79
2023/08/22 07:54:10;;;;;;;3.50;1.20;;;;;;;33.98;49.51;100863.41;673060;1265;140297;-79
2023/08/22 08:09:14;;;;;;;2.50;1.10;;;;;;;33.37;48.61;100858.95;668846;1276;139535;-77
2023/08/22 08:24:35;;;;;;;2.30;1.10;;;;;;;32.72;48.03;100823.21;671824;1262;138800;-79
2023/08/22 08:39:38;;;;;;;6.40;1.40;;;;;;;31.02;49.15;100806.30;669353;1273;140393;-77
2023/08/22 08:54:42;;;;;;;4.80;1.50;;;;;;;30.77;50.54;100803.53;668796;1277;139889;-78
2023/08/22 09:09:45;;;;;;;5.60;1.50;;;;;;;31.46;49.63;100810.73;670304;1260;139775;-77
2023/08/22 09:24:53;;;;;;;5.20;1.80;;;;;;;32.18;48.93;100854.12;670297;1264;139421;-78
2023/08/22 09:39:56;;;;;;;12.70;6.10;;;;;;;33.07;47.02;100848.60;670894;1264;140211;-77
2023/08/22 09:55:00;;;;;;;5.20;1.50;;;;;;;30.59;49.02;100818.99;671528;1267;140239;-77
2023/08/22 10:10:05;;;;;;;2.90;1.30;;;;;;;28.24;51.80;100805.43;671814;1267;139304;-78
2023/08/22 10:25:08;;;;;;;5.00;1.50;;;;;;;27.73;53.52;100809.12;669601;1264;139263;-79
2023/08/22 10:40:27;;;;;;;127.20;79.50;;;;;;;27.60;53.85;100815.23;670896;1267;139055;-79
2023/08/22 10:55:31;;;;;;;4.50;2.10;;;;;;;28.51;52.68;100816.69;672531;1265;139442;-79
2023/08/22 11:10:35;;;;;;;10.00;2.90;;;;;;;29.82;51.22;100840.59;670392;1276;139449;-78
2023/08/22 11:25:40;;;;;;;4.70;2.10;;;;;;;30.24;48.58;100821.95;669219;1263;139145;-79
2023/08/22 11:40:43;;;;;;;2.80;1.60;;;;;;;29.32;50.49;100788.35;670855;1278;139114;-80
2023/08/22 11:55:55;;;;;;;5.10;1.70;;;;;;;29.05;49.52;100776.48;669024;1266;139661;-78
2023/08/22 12:11:01;;;;;;;6.00;1.60;;;;;;;29.29;48.58;100774.69;670018;1267;139501;-80
2023/08/22 12:26:04;;;;;;;2.60;1.60;;;;;;;29.11;48.93;100762.70;671057;1282;139346;-79
2023/08/22 12:41:07;;;;;;;5.60;1.50;;;;;;;29.77;47.82;100766.91;671363;1266;139629;-78
2023/08/22 12:56:11;;;;;;;5.60;1.60;;;;;;;29.54;47.28;100759.79;673916;1276;139657;-78
2023/08/22 13:11:14;;;;;;;2.90;1.60;;;;;;;28.87;47.31;100748.96;669920;1263;139408;-79
2023/08/22 13:26:17;;;;;;;2.10;1.40;;;;;;;28.80;46.94;100726.80;670204;1275;140429;-79
2023/08/22 13:41:21;;;;;;;3.50;1.40;;;;;;;29.81;45.49;100720.56;669168;1265;139734;-77
2023/08/22 13:56:24;;;;;;;6.40;1.70;;;;;;;30.14;45.39;100707.29;668694;1265;140084;-77
2023/08/22 14:11:28;;;;;;;4.00;1.70;;;;;;;29.40;43.72;100709.58;669194;1266;139691;-77
2023/08/22 14:26:31;;;;;;;4.80;1.50;;;;;;;28.95;44.30;100701.19;669767;1267;139062;-78
2023/08/22 14:41:35;;;;;;;8.10;1.90;;;;;;;28.97;44.68;100685.66;670287;1266;139185;-78
2023/08/22 14:56:38;;;;;;;3.70;1.60;;;;;;;28.58;44.90;100682.52;669572;1266;139414;-77
2023/08/22 15:11:42;;;;;;;5.00;1.70;;;;;;;28.31;44.89;100684.77;669406;1265;194479;-78
2023/08/22 15:26:48;;;;;;;3.40;1.60;;;;;;;28.31;45.52;100658.09;669050;1266;139735;-79
2023/08/22 15:41:51;;;;;;;4.60;1.70;;;;;;;27.87;45.66;100649.38;668301;1265;139973;-80
2023/08/22 15:56:54;;;;;;;24.40;11.80;;;;;;;27.74;46.31;100633.23;668489;1277;139170;-80
2023/08/22 16:11:58;;;;;;;20.50;12.10;;;;;;;27.67;47.60;100613.54;670187;1265;140494;-80
2023/08/22 16:27:02;;;;;;;12.10;7.20;;;;;;;27.59;47.97;100606.82;673115;1263;139195;-80
2023/08/22 16:42:05;;;;;;;7.00;3.10;;;;;;;27.16;48.66;100590.13;669699;1259;139886;-79
2023/08/22 16:57:08;;;;;;;7.20;2.90;;;;;;;26.80;50.10;100602.02;670542;1263;138889;-80
2023/08/22 17:12:11;;;;;;;18.60;4.50;;;;;;;26.29;50.96;100579.33;671622;1262;140041;-80
2023/08/22 17:27:17;;;;;;;13.50;5.40;;;;;;;26.20;52.23;100572.89;673809;1263;139903;-80
2023/08/22 17:42:20;;;;;;;28.10;11.60;;;;;;;25.71;53.16;100561.80;672694;1263;140501;-81
2023/08/22 17:57:24;;;;;;;22.50;11.30;;;;;;;24.96;54.24;100578.78;672874;1263;139517;-80
2023/08/22 18:12:28;;;;;;;12.60;4.90;;;;;;;24.32;55.44;100593.98;673168;1260;140105;-81
2023/08/22 18:27:32;;;;;;;16.10;7.90;;;;;;;23.58;56.54;100594.73;673569;1262;140436;-81
2023/08/22 18:42:35;;;;;;;20.70;10.60;;;;;;;22.90;57.83;100597.42;673573;1273;139398;-81
2023/08/22 18:57:38;;;;;;;30.40;13.30;;;;;;;22.33;58.85;100604.23;673822;1264;139527;-80
2023/08/22 19:12:41;;;;;;;24.00;9.40;;;;;;;21.77;59.75;100604.71;674448;1263;143435;-80
2023/08/22 19:33:42;;;;;;;18.50;8.80;;;;;;;21.11;61.54;100601.77;652996;1308;545508;-79
2023/08/22 19:48:46;;;;;;;26.20;9.80;;;;;;;20.87;62.87;100597.37;668979;1284;139057;-79
2023/08/22 20:03:49;;;;;;;13.10;6.60;;;;;;;20.48;63.79;100597.09;673152;1265;139725;-79
2023/08/22 20:18:53;;;;;;;13.60;6.00;;;;;;;19.78;64.81;100604.87;674779;1266;140913;-80
2023/08/22 20:33:56;;;;;;;20.60;7.50;;;;;;;19.60;66.22;100606.02;673494;1269;139415;-81
2023/08/22 20:48:59;;;;;;;20.50;10.30;;;;;;;19.55;67.57;100603.63;674946;1266;140160;-81
2023/08/22 21:04:03;;;;;;;12.60;5.80;;;;;;;19.22;68.45;100610.77;674139;1262;140113;-80
2023/08/22 21:19:07;;;;;;;16.20;5.40;;;;;;;18.81;69.03;100615.86;673919;1265;141390;-81
2023/08/22 21:34:10;;;;;;;9.10;5.10;;;;;;;18.41;69.18;100624.81;675221;1267;138964;-81
2023/08/22 21:49:14;;;;;;;11.40;5.60;;;;;;;18.18;70.63;100628.89;673992;1274;139591;-80
2023/08/22 22:04:18;;;;;;;15.60;6.60;;;;;;;17.77;71.58;100641.64;674289;1265;139878;-80
2023/08/22 22:19:21;;;;;;;14.80;6.10;;;;;;;17.77;72.29;100645.59;673999;1265;140219;-80
2023/08/22 22:34:25;;;;;;;11.30;5.60;;;;;;;17.45;72.76;100641.64;672188;1266;139857;-80
2023/08/22 22:49:29;;;;;;;12.00;6.00;;;;;;;17.32;73.79;100637.16;671626;1267;139791;-80
2023/08/22 23:04:32;;;;;;;10.20;4.80;;;;;;;16.93;73.87;100635.72;671825;1261;139174;-80
2023/08/22 23:19:36;;;;;;;15.30;6.10;;;;;;;16.99;74.87;100636.82;672092;1264;139434;-79
2023/08/22 23:34:40;;;;;;;12.80;6.90;;;;;;;16.72;75.97;100626.20;672185;1267;140403;-80
2023/08/22 23:49:43;;;;;;;14.10;6.00;;;;;;;16.51;77.39;100611.61;671827;1265;139733;-80
